createdAt,value
2023-01-17T00:01:34.185Z,23.70
2023-01-17T00:04:19.923Z,23.85
2023-01-17T00:07:05.634Z,25.02
2023-01-17T00:09:51.066Z,24.27
2023-01-17T00:12:18.188Z,21.65
2023-01-17T00:14:45.023Z,21.27
2023-01-17T00:17:12.097Z,22.25
2023-01-17T00:19:57.640Z,20.10
2023-01-17T00:22:45.852Z,20.88
2023-01-17T00:25:33.468Z,22.60
2023-01-17T00:28:00.660Z,21.92
2023-01-17T00:30:28.025Z,20.40
2023-01-17T00:32:54.872Z,20.83
2023-01-17T00:35:25.751Z,20.85
2023-01-17T00:38:22.679Z,22.20
2023-01-17T00:40:49.957Z,21.02
2023-01-17T00:43:38.018Z,21.48
2023-01-17T00:46:24.109Z,19.88
2023-01-17T00:49:09.750Z,20.35
2023-01-17T00:51:55.885Z,23.98
2023-01-17T00:54:41.398Z,19.70
2023-01-17T00:57:27.049Z,20.23
2023-01-17T01:00:12.723Z,24.25
2023-01-17T01:02:58.255Z,25.13
2023-01-17T01:05:43.946Z,24.85
2023-01-17T01:08:43.673Z,22.45
2023-01-17T01:11:35.238Z,22.80
2023-01-17T01:14:21.504Z,22.67
2023-01-17T01:17:07.019Z,20.63
2023-01-17T01:19:52.540Z,21.83
2023-01-17T01:22:38.180Z,22.23
2023-01-17T01:25:24.292Z,21.67
2023-01-17T01:28:09.943Z,19.50
2023-01-17T01:33:22.286Z,18.85
2023-01-17T01:35:54.332Z,16.35
2023-01-17T01:38:23.835Z,13.30
2023-01-17T01:40:53.416Z,14.00
2023-01-17T01:43:41.520Z,14.63
2023-01-17T01:46:11.750Z,14.57
2023-01-17T01:48:53.823Z,12.60
2023-01-17T01:51:28.028Z,8.95
2023-01-17T01:54:02.889Z,9.50
2023-01-17T01:56:31.378Z,9.05
2023-01-17T01:59:01.407Z,8.25
2023-01-17T02:01:29.892Z,8.95
2023-01-17T02:03:57.248Z,9.40
2023-01-17T02:06:32.544Z,8.55
2023-01-17T02:11:29.259Z,10.00
2023-01-17T02:13:56.137Z,11.02
2023-01-17T02:16:44.541Z,9.98
2023-01-17T02:19:49.759Z,11.23
2023-01-17T02:22:31.710Z,10.38
2023-01-17T02:25:04.542Z,10.60
2023-01-17T02:28:17.791Z,11.18
2023-01-17T02:30:50.651Z,13.18
2023-01-17T02:33:25.614Z,14.07
2023-01-17T02:36:33.303Z,12.90
2023-01-17T02:39:12.200Z,12.80
2023-01-17T02:41:47.238Z,13.73
2023-01-17T02:44:18.591Z,13.25
2023-01-17T02:46:50.573Z,14.18
2023-01-17T02:49:21.567Z,15.23
2023-01-17T02:52:26.776Z,14.10
2023-01-17T02:55:11.595Z,14.18
2023-01-17T02:57:53.577Z,13.37
2023-01-17T03:00:32.963Z,15.27
2023-01-17T03:03:10.436Z,13.55
2023-01-17T03:05:49.521Z,12.98
2023-01-17T03:08:17.403Z,12.45
2023-01-17T03:10:45.367Z,10.80
2023-01-17T03:13:12.332Z,10.40
2023-01-17T03:15:40.176Z,10.65
2023-01-17T03:18:13.017Z,11.45
2023-01-17T03:20:39.978Z,10.30
2023-01-17T03:23:06.991Z,10.73
2023-01-17T03:25:34.143Z,11.55
2023-01-17T03:28:00.986Z,10.98
2023-01-17T03:30:28.026Z,10.20
2023-01-17T03:32:54.870Z,11.07
2023-01-17T03:35:21.760Z,11.27
2023-01-17T03:37:48.725Z,11.32
2023-01-17T03:40:15.591Z,10.80
2023-01-17T03:42:42.899Z,9.40
2023-01-17T03:45:10.261Z,10.00
2023-01-17T03:47:37.174Z,9.88
2023-01-17T03:50:04.743Z,9.85
2023-01-17T03:52:32.553Z,9.55
2023-01-17T03:54:59.766Z,9.30
2023-01-17T03:57:26.672Z,9.50
2023-01-17T03:59:53.492Z,9.82
2023-01-17T04:02:20.568Z,9.95
2023-01-17T04:04:47.493Z,9.15
2023-01-17T04:07:14.360Z,9.70
2023-01-17T04:09:41.248Z,9.60
2023-01-17T04:12:09.547Z,10.02
2023-01-17T04:14:36.452Z,10.88
2023-01-17T04:17:04.237Z,10.38
2023-01-17T04:19:34.170Z,10.57
2023-01-17T04:22:01.068Z,10.35
2023-01-17T04:24:28.036Z,10.50
2023-01-17T04:26:54.940Z,10.35
2023-01-17T04:29:21.822Z,9.93
2023-01-17T04:31:48.899Z,10.13
2023-01-17T04:34:15.837Z,8.63
2023-01-17T04:36:42.688Z,8.13
2023-01-17T04:39:09.531Z,7.72
2023-01-17T04:41:36.420Z,7.20
2023-01-17T04:44:04.092Z,7.72
2023-01-17T04:46:31.268Z,8.77
2023-01-17T04:48:59.127Z,7.80
2023-01-17T04:51:26.173Z,8.80
2023-01-17T04:53:53.016Z,8.85
2023-01-17T04:56:19.909Z,8.60
2023-01-17T04:58:46.851Z,9.02
2023-01-17T05:01:13.942Z,8.30
2023-01-17T05:03:40.876Z,8.05
2023-01-17T05:06:07.833Z,8.48
2023-01-17T05:08:34.748Z,7.82
2023-01-17T05:11:01.751Z,7.72
2023-01-17T05:13:28.703Z,8.35
2023-01-17T05:15:57.860Z,9.27
2023-01-17T05:18:25.178Z,7.72
2023-01-17T05:20:52.261Z,8.57
2023-01-17T05:23:19.089Z,9.57
2023-01-17T05:25:45.986Z,10.15
2023-01-17T05:28:14.006Z,8.32
2023-01-17T05:30:41.440Z,8.05
2023-01-17T05:33:10.351Z,8.10
2023-01-17T05:35:37.754Z,7.93
2023-01-17T05:38:05.061Z,7.57
2023-01-17T05:40:33.283Z,8.20
2023-01-17T05:43:01.420Z,7.63
2023-01-17T05:45:29.907Z,7.88
2023-01-17T05:47:58.458Z,8.82
2023-01-17T05:50:31.083Z,7.22
2023-01-17T05:53:03.780Z,8.07
2023-01-17T05:55:31.998Z,6.80
2023-01-17T05:57:59.731Z,7.80
2023-01-17T06:00:27.484Z,7.57
2023-01-17T06:02:55.888Z,6.45
2023-01-17T06:05:23.447Z,6.82
2023-01-17T06:07:50.373Z,7.30
2023-01-17T06:10:19.241Z,7.53
2023-01-17T06:12:46.858Z,6.82
2023-01-17T06:15:15.495Z,5.25
2023-01-17T06:17:42.506Z,5.20
2023-01-17T06:20:11.544Z,6.30
2023-01-17T06:22:38.416Z,6.60
2023-01-17T06:25:05.700Z,6.55
2023-01-17T06:27:32.606Z,5.57
2023-01-17T06:29:59.455Z,5.65
2023-01-17T06:32:26.276Z,5.30
2023-01-17T06:34:53.409Z,7.25
2023-01-17T06:37:20.260Z,5.13
2023-01-17T06:39:47.180Z,5.10
2023-01-17T06:42:14.058Z,5.03
2023-01-17T06:44:41.061Z,5.80
2023-01-17T06:47:07.924Z,5.07
2023-01-17T06:49:34.774Z,5.00
2023-01-17T06:52:01.643Z,5.40
2023-01-17T06:54:28.534Z,5.28
2023-01-17T06:56:55.461Z,4.60
2023-01-17T06:59:22.422Z,5.88
2023-01-17T07:01:49.305Z,5.15
2023-01-17T07:04:16.261Z,5.32
2023-01-17T07:06:43.128Z,7.00
2023-01-17T07:09:10.081Z,6.40
2023-01-17T07:11:36.973Z,5.68
2023-01-17T07:14:03.840Z,5.70
2023-01-17T07:16:30.801Z,5.63
2023-01-17T07:18:58.197Z,5.15
2023-01-17T07:21:25.164Z,4.97
2023-01-17T07:23:52.091Z,5.50
2023-01-17T07:26:19.082Z,5.00
2023-01-17T07:28:46.001Z,4.88
2023-01-17T07:34:29.242Z,4.43
2023-01-17T07:36:56.906Z,4.60
2023-01-17T07:39:23.883Z,4.80
2023-01-17T07:41:50.728Z,5.68
2023-01-17T07:44:19.625Z,4.25
2023-01-17T07:46:46.774Z,4.90
2023-01-17T07:49:14.713Z,4.88
2023-01-17T07:51:41.597Z,4.90
2023-01-17T07:54:08.565Z,4.80
2023-01-17T07:56:35.520Z,4.60
2023-01-17T07:59:02.427Z,4.43
2023-01-17T08:01:29.494Z,4.57
2023-01-17T08:03:56.520Z,4.38
2023-01-17T08:06:25.698Z,4.60
2023-01-17T08:08:56.542Z,5.00
2023-01-17T08:11:23.591Z,4.40
2023-01-17T08:17:11.579Z,4.93
2023-01-17T08:19:38.547Z,4.10
2023-01-17T08:22:05.404Z,4.65
2023-01-17T08:24:32.307Z,9.05
2023-01-17T08:26:59.231Z,8.90
2023-01-17T08:29:26.273Z,12.88
2023-01-17T08:31:54.180Z,11.57
2023-01-17T08:34:21.174Z,10.40
2023-01-17T08:36:48.066Z,8.85
2023-01-17T08:39:15.046Z,9.00
2023-01-17T08:41:41.951Z,7.97
2023-01-17T08:44:08.853Z,6.95
2023-01-17T08:46:38.352Z,7.90
2023-01-17T08:49:08.260Z,7.72
2023-01-17T08:51:36.580Z,5.80
2023-01-17T08:54:03.564Z,5.88
2023-01-17T08:56:30.563Z,5.45
2023-01-17T08:58:57.424Z,6.13
2023-01-17T09:01:24.410Z,4.25
2023-01-17T09:03:52.046Z,4.55
2023-01-17T09:06:18.991Z,5.05
2023-01-17T09:08:47.117Z,4.20
2023-01-17T09:11:18.043Z,4.70
2023-01-17T09:13:45.065Z,5.22
2023-01-17T09:16:12.239Z,4.22
2023-01-17T09:18:39.347Z,5.45
2023-01-17T09:21:25.970Z,3.60
2023-01-17T09:23:53.727Z,2.92
2023-01-17T09:26:22.180Z,2.42
2023-01-17T09:28:49.546Z,2.60
2023-01-17T09:31:17.745Z,2.22
2023-01-17T09:33:44.839Z,2.42
2023-01-17T09:36:12.187Z,2.03
2023-01-17T09:38:40.407Z,2.45
2023-01-17T09:41:31.378Z,2.70
2023-01-17T09:44:32.162Z,2.72
2023-01-17T09:47:11.505Z,2.60
2023-01-17T09:49:44.461Z,2.13
2023-01-17T09:52:23.392Z,4.78
2023-01-17T09:54:51.709Z,3.88
2023-01-17T09:57:41.845Z,3.70
2023-01-17T10:00:13.009Z,2.75
2023-01-17T10:03:01.646Z,3.33
2023-01-17T10:05:43.488Z,1.52
2023-01-17T10:08:29.843Z,2.45
2023-01-17T10:11:33.543Z,2.35
2023-01-17T10:14:18.860Z,2.15
2023-01-17T10:19:23.085Z,2.20
2023-01-17T10:22:15.414Z,1.90
2023-01-17T10:25:04.161Z,2.28
2023-01-17T10:27:35.104Z,2.22
2023-01-17T10:30:05.168Z,2.10
2023-01-17T10:32:34.780Z,2.30
2023-01-17T10:35:17.478Z,1.85
2023-01-17T10:37:45.604Z,2.40
2023-01-17T10:40:18.140Z,1.40
2023-01-17T10:42:53.847Z,2.20
2023-01-17T10:45:28.604Z,2.70
2023-01-17T10:48:29.909Z,2.00
2023-01-17T10:51:12.538Z,2.55
2023-01-17T10:53:59.034Z,2.13
2023-01-17T10:56:30.225Z,2.28
2023-01-17T10:59:12.208Z,2.40
2023-01-17T11:01:39.514Z,2.35
2023-01-17T11:04:22.835Z,2.15
2023-01-17T11:07:13.318Z,1.60
2023-01-17T11:09:42.881Z,1.88
2023-01-17T11:12:39.788Z,3.47
2023-01-17T11:15:09.401Z,2.83
2023-01-17T11:17:48.986Z,2.90
2023-01-17T11:20:26.352Z,1.95
2023-01-17T11:23:08.282Z,2.33
2023-01-17T11:25:35.456Z,1.70
2023-01-17T11:28:18.103Z,2.20
2023-01-17T11:30:57.153Z,2.10
2023-01-17T11:33:53.988Z,1.90
2023-01-17T11:36:22.322Z,2.00
2023-01-17T11:39:18.135Z,2.20
2023-01-17T11:41:47.862Z,2.00
2023-01-17T11:44:34.197Z,2.17
2023-01-17T11:47:11.224Z,2.17
2023-01-17T11:49:42.987Z,1.73
2023-01-17T11:52:33.071Z,1.50
2023-01-17T11:55:00.388Z,2.17
2023-01-17T11:57:31.638Z,1.40
2023-01-17T12:00:19.514Z,1.83
2023-01-17T12:03:15.329Z,2.15
2023-01-17T12:08:42.919Z,1.20
2023-01-17T12:11:14.457Z,1.98
2023-01-17T12:14:02.269Z,2.03
2023-01-17T12:16:47.949Z,1.73
2023-01-17T12:19:33.103Z,1.83
2023-01-17T12:24:51.403Z,1.80
2023-01-17T12:27:41.962Z,1.35
2023-01-17T12:30:24.577Z,1.70
2023-01-17T12:33:21.641Z,2.08
2023-01-17T12:36:02.175Z,1.88
2023-01-17T12:38:35.990Z,1.65
2023-01-17T12:41:06.517Z,1.77
2023-01-17T12:43:43.258Z,2.00
2023-01-17T12:46:21.090Z,3.58
2023-01-17T12:48:52.325Z,2.13
2023-01-17T12:51:27.877Z,2.20
2023-01-17T12:54:16.203Z,1.42
2023-01-17T12:56:50.784Z,1.70
2023-01-17T12:59:38.172Z,1.63
2023-01-17T13:02:33.695Z,1.92
2023-01-17T13:05:11.831Z,1.60
2023-01-17T13:07:54.019Z,1.75
2023-01-17T13:10:31.891Z,3.00
2023-01-17T13:13:34.630Z,2.15
2023-01-17T13:16:43.387Z,1.88
2023-01-17T13:19:29.052Z,2.10
2023-01-17T13:21:57.545Z,2.88
2023-01-17T13:24:48.395Z,2.22
2023-01-17T13:27:44.535Z,1.95
2023-01-17T13:30:35.717Z,2.17
2023-01-17T13:33:10.298Z,2.83
2023-01-17T13:36:15.793Z,2.08
2023-01-17T13:38:57.653Z,2.58
2023-01-17T13:41:50.779Z,2.05
2023-01-17T13:44:24.998Z,2.60
2023-01-17T13:47:02.179Z,2.85
2023-01-17T13:49:31.922Z,2.67
2023-01-17T13:52:23.169Z,2.85
2023-01-17T13:54:57.274Z,2.10
2023-01-17T13:57:29.748Z,2.55
2023-01-17T13:59:59.230Z,2.35
2023-01-17T14:02:32.046Z,2.63
2023-01-17T14:05:21.493Z,2.65
2023-01-17T14:07:58.408Z,2.50
2023-01-17T14:10:34.633Z,2.13
2023-01-17T14:13:02.391Z,2.30
2023-01-17T14:15:33.788Z,2.60
2023-01-17T14:18:05.117Z,2.58
2023-01-17T14:20:44.254Z,2.00
2023-01-17T14:23:25.446Z,2.50
2023-01-17T14:25:53.475Z,2.10
2023-01-17T14:28:23.952Z,2.53
2023-01-17T14:30:56.106Z,2.40
2023-01-17T14:33:30.353Z,2.63
2023-01-17T14:36:14.415Z,3.00
2023-01-17T14:38:44.623Z,3.10
2023-01-17T14:41:19.125Z,3.17
2023-01-17T14:43:48.423Z,3.15
2023-01-17T14:46:28.599Z,2.40
2023-01-17T14:49:02.447Z,2.97
2023-01-17T14:51:29.916Z,3.72
2023-01-17T14:54:02.506Z,2.47
2023-01-17T14:56:31.446Z,2.83
2023-01-17T14:59:17.589Z,2.22
2023-01-17T15:02:06.164Z,2.78
2023-01-17T15:04:39.359Z,2.20
2023-01-17T15:07:07.784Z,2.72
2023-01-17T15:09:38.618Z,2.50
2023-01-17T15:12:10.509Z,2.17
2023-01-17T15:14:41.789Z,2.33
2023-01-17T15:17:20.494Z,2.22
2023-01-17T15:19:52.990Z,2.50
2023-01-17T15:22:20.559Z,3.35
2023-01-17T15:24:49.301Z,3.15
2023-01-17T15:27:17.086Z,2.13
2023-01-17T15:29:46.061Z,2.53
2023-01-17T15:32:20.391Z,2.40
2023-01-17T15:34:49.703Z,2.50
2023-01-17T15:37:32.826Z,2.13
2023-01-17T15:40:17.056Z,2.88
2023-01-17T15:42:46.937Z,2.72
2023-01-17T15:45:19.933Z,2.65
2023-01-17T15:47:47.044Z,2.65
2023-01-17T15:50:20.069Z,3.35
2023-01-17T15:53:02.681Z,2.90
2023-01-17T15:55:40.439Z,3.15
2023-01-17T15:58:28.575Z,3.20
2023-01-17T16:00:55.978Z,4.15
2023-01-17T16:03:24.309Z,2.40
2023-01-17T16:05:53.358Z,2.35
2023-01-17T16:08:32.115Z,3.03
2023-01-17T16:11:02.475Z,2.00
2023-01-17T16:13:31.766Z,2.60
2023-01-17T16:16:13.571Z,2.60
2023-01-17T16:18:40.899Z,3.20
2023-01-17T16:21:29.273Z,2.92
2023-01-17T16:23:56.880Z,2.35
2023-01-17T16:26:24.305Z,2.88
2023-01-17T16:28:51.891Z,3.95
2023-01-17T16:31:19.072Z,2.80
2023-01-17T16:33:49.485Z,2.75
2023-01-17T16:36:16.930Z,2.60
2023-01-17T16:38:45.413Z,3.17
2023-01-17T16:41:12.501Z,4.88
2023-01-17T16:43:39.620Z,3.28
2023-01-17T16:46:07.227Z,4.45
2023-01-17T16:48:34.184Z,4.72
2023-01-17T16:51:06.806Z,4.38
2023-01-17T16:53:35.115Z,4.57
2023-01-17T16:56:12.118Z,5.05
2023-01-17T16:58:39.812Z,4.13
2023-01-17T17:01:25.567Z,4.03
2023-01-17T17:03:52.647Z,3.75
2023-01-17T17:06:19.922Z,3.67
2023-01-17T17:08:47.774Z,3.58
2023-01-17T17:11:23.284Z,4.15
2023-01-17T17:13:51.354Z,3.40
2023-01-17T17:16:33.011Z,3.85
2023-01-17T17:19:03.568Z,3.28
2023-01-17T17:21:32.173Z,4.32
2023-01-17T17:24:00.954Z,4.80
2023-01-17T17:26:32.045Z,4.15
2023-01-17T17:28:59.149Z,4.00
2023-01-17T17:31:26.900Z,4.57
2023-01-17T17:33:58.767Z,5.03
2023-01-17T17:36:25.723Z,3.63
2023-01-17T17:38:55.494Z,4.70
2023-01-17T17:41:24.901Z,5.32
2023-01-17T17:43:52.444Z,4.68
2023-01-17T17:46:21.376Z,5.80
2023-01-17T17:48:49.599Z,4.00
2023-01-17T17:51:27.837Z,5.07
2023-01-17T17:53:57.996Z,5.38
2023-01-17T17:56:25.162Z,5.45
2023-01-17T17:58:52.341Z,5.07
2023-01-17T18:01:20.120Z,5.22
2023-01-17T18:03:47.401Z,3.88
2023-01-17T18:06:16.179Z,4.10
2023-01-17T18:08:43.783Z,5.10
2023-01-17T18:11:19.792Z,5.75
2023-01-17T18:13:47.923Z,5.43
2023-01-17T18:16:16.364Z,4.88
2023-01-17T18:18:48.988Z,5.07
2023-01-17T18:21:23.745Z,3.80
2023-01-17T18:23:59.997Z,5.13
2023-01-17T18:26:35.422Z,4.38
2023-01-17T18:29:03.506Z,6.05
2023-01-17T18:31:31.374Z,5.47
2023-01-17T18:34:05.972Z,5.72
2023-01-17T18:36:35.045Z,6.20
2023-01-17T18:39:03.921Z,5.22
2023-01-17T18:41:31.429Z,4.68
2023-01-17T18:43:58.413Z,4.10
2023-01-17T18:46:26.786Z,4.47
2023-01-17T18:48:57.170Z,5.18
2023-01-17T18:51:24.954Z,4.65
2023-01-17T18:53:53.086Z,5.43
2023-01-17T18:56:21.903Z,4.95
2023-01-17T18:58:50.411Z,4.47
2023-01-17T19:01:25.197Z,5.05
2023-01-17T19:03:54.323Z,3.80
2023-01-17T19:06:33.218Z,4.65
2023-01-17T19:09:00.845Z,5.05
2023-01-17T19:11:28.710Z,4.60
2023-01-17T19:13:56.298Z,5.25
2023-01-17T19:16:29.508Z,4.00
2023-01-17T19:18:58.520Z,4.38
2023-01-17T19:21:27.646Z,4.43
2023-01-17T19:23:56.078Z,4.15
2023-01-17T19:26:25.168Z,3.83
2023-01-17T19:28:52.982Z,3.88
2023-01-17T19:31:31.484Z,4.82
2023-01-17T19:33:59.864Z,4.05
2023-01-17T19:36:34.530Z,3.88
2023-01-17T19:39:05.900Z,5.22
2023-01-17T19:41:36.072Z,3.70
2023-01-17T19:44:06.051Z,4.03
2023-01-17T19:46:34.216Z,4.25
2023-01-17T19:49:01.900Z,5.05
2023-01-17T19:51:29.060Z,4.32
2023-01-17T19:53:59.195Z,5.38
2023-01-17T19:56:27.093Z,4.40
2023-01-17T19:58:54.709Z,5.95
2023-01-17T20:01:25.356Z,4.38
2023-01-17T20:03:53.013Z,5.07
2023-01-17T20:06:22.141Z,4.47
2023-01-17T20:08:49.112Z,4.10
2023-01-17T20:11:19.786Z,4.95
2023-01-17T20:13:47.760Z,3.63
2023-01-17T20:16:16.761Z,4.68
2023-01-17T20:18:44.611Z,4.63
2023-01-17T20:21:12.437Z,3.83
2023-01-17T20:23:43.137Z,3.97
2023-01-17T20:26:18.737Z,3.78
2023-01-17T20:28:47.650Z,4.45
2023-01-17T20:31:17.736Z,3.60
2023-01-17T20:33:47.049Z,4.03
2023-01-17T20:36:15.606Z,4.05
2023-01-17T20:38:46.574Z,2.83
2023-01-17T20:41:19.141Z,4.57
2023-01-17T20:43:48.460Z,4.72
2023-01-17T20:46:16.371Z,3.67
2023-01-17T20:48:48.204Z,3.65
2023-01-17T20:51:15.795Z,3.85
2023-01-17T20:53:44.744Z,4.55
2023-01-17T20:56:14.663Z,3.72
2023-01-17T20:58:42.676Z,3.50
2023-01-17T21:01:11.923Z,4.85
2023-01-17T21:03:40.082Z,4.30
2023-01-17T21:06:10.032Z,5.63
2023-01-17T21:08:39.458Z,4.88
2023-01-17T21:11:08.735Z,4.30
2023-01-17T21:13:35.659Z,5.78
2023-01-17T21:16:03.471Z,5.57
2023-01-17T21:18:33.951Z,4.15
2023-01-17T21:21:08.367Z,6.03
2023-01-17T21:23:36.517Z,3.40
2023-01-17T21:26:04.612Z,3.47
2023-01-17T21:28:36.784Z,3.80
2023-01-17T21:31:25.175Z,4.90
2023-01-17T21:34:04.514Z,3.53
2023-01-17T21:36:37.391Z,4.32
2023-01-17T21:39:07.631Z,3.72
2023-01-17T21:41:39.736Z,4.57
2023-01-17T21:44:20.745Z,4.10
2023-01-17T21:46:48.276Z,4.63
2023-01-17T21:49:15.568Z,5.38
2023-01-17T21:51:55.436Z,6.10
2023-01-17T21:55:07.192Z,5.28
2023-01-17T21:57:52.364Z,5.00
2023-01-17T22:00:19.554Z,5.60
2023-01-17T22:02:47.749Z,4.70
2023-01-17T22:05:16.942Z,4.68
2023-01-17T22:08:04.669Z,3.90
2023-01-17T22:10:31.782Z,3.60
2023-01-17T22:12:58.788Z,4.32
2023-01-17T22:15:25.783Z,3.45
2023-01-17T22:17:52.803Z,3.28
2023-01-17T22:20:21.115Z,3.97
2023-01-17T22:22:48.405Z,3.45
2023-01-17T22:25:15.503Z,3.72
2023-01-17T22:27:42.359Z,4.30
2023-01-17T22:30:13.078Z,3.38
2023-01-17T22:32:40.400Z,4.47
2023-01-17T22:35:08.224Z,4.15
2023-01-17T22:37:35.419Z,2.90
2023-01-17T22:40:04.991Z,3.88
2023-01-17T22:42:34.998Z,4.53
2023-01-17T22:45:02.224Z,4.18
2023-01-17T22:47:29.373Z,3.38
2023-01-17T22:49:56.315Z,3.75
2023-01-17T22:52:23.172Z,5.35
2023-01-17T22:54:50.732Z,4.53
2023-01-17T22:57:18.339Z,3.03
2023-01-17T22:59:45.172Z,3.35
2023-01-17T23:02:12.187Z,3.35
2023-01-17T23:04:39.059Z,4.18
2023-01-17T23:07:05.901Z,4.07
2023-01-17T23:09:33.184Z,3.85
2023-01-17T23:12:00.397Z,3.67
2023-01-17T23:14:52.560Z,3.80
2023-01-17T23:17:43.105Z,3.50
2023-01-17T23:20:11.547Z,4.43
2023-01-17T23:22:38.755Z,3.75
2023-01-17T23:25:09.403Z,4.53
2023-01-17T23:28:03.513Z,6.28
2023-01-17T23:30:40.966Z,5.13
2023-01-17T23:33:10.337Z,4.43
2023-01-17T23:35:42.560Z,4.05
2023-01-17T23:38:37.626Z,4.50
2023-01-17T23:41:24.435Z,4.70
2023-01-17T23:43:52.823Z,4.75
2023-01-17T23:46:20.027Z,3.92
2023-01-17T23:48:47.225Z,4.28
2023-01-17T23:51:14.350Z,5.00
2023-01-17T23:53:41.588Z,4.18
2023-01-17T23:56:20.850Z,4.55
2023-01-17T23:58:48.287Z,4.45
